RJCH(METAR)
05/21 17:00
METAR RJCH 210800Z 20006KT 150V260 9999 FEW008 BKN120 15/13 Q1001
RMK 1ST008 5AC120 A2958=
戻る
トップページへ戻る
IMOC Co,.Ltd.